createdAt,value
2023-04-14T05:04:31.051Z,7.81
2023-04-14T05:09:32.701Z,7.83
2023-04-14T05:14:34.177Z,7.87
2023-04-14T05:19:35.657Z,7.91
2023-04-14T05:24:37.172Z,8.06
2023-04-14T05:29:39.779Z,8.23
2023-04-14T05:34:41.904Z,8.41
2023-04-14T05:39:43.931Z,8.53
2023-04-14T05:44:45.555Z,8.64
2023-04-14T05:49:46.963Z,8.73
2023-04-14T05:54:48.368Z,8.68
2023-04-14T05:59:49.804Z,8.66
2023-04-14T06:04:51.323Z,8.62
2023-04-14T06:09:52.970Z,8.61
2023-04-14T06:14:55.523Z,8.60
2023-04-14T06:19:57.276Z,8.66
2023-04-14T06:24:58.684Z,8.81
2023-04-14T06:30:01.132Z,8.95
2023-04-14T06:35:05.186Z,9.07
2023-04-14T06:40:07.421Z,9.18
2023-04-14T06:45:09.363Z,9.29
2023-04-14T06:50:12.070Z,9.36
2023-04-14T06:55:13.788Z,9.45
2023-04-14T07:00:20.668Z,9.52
2023-04-14T07:05:22.412Z,9.56
2023-04-14T07:10:24.400Z,9.56
2023-04-14T07:15:25.868Z,9.55
2023-04-14T07:20:29.145Z,9.48
2023-04-14T07:25:30.780Z,9.45
2023-04-14T07:30:32.549Z,9.43
2023-04-14T07:35:34.205Z,9.48
2023-04-14T07:40:36.812Z,9.53
2023-04-14T07:45:39.888Z,9.55
2023-04-14T07:50:41.495Z,9.44
2023-04-14T07:55:43.024Z,9.27
2023-04-14T08:00:44.786Z,9.20
2023-04-14T08:05:46.367Z,9.16
2023-04-14T08:10:48.083Z,9.09
2023-04-14T08:15:49.720Z,9.02
2023-04-14T08:20:51.502Z,8.95
2023-04-14T08:25:55.376Z,8.94
2023-04-14T08:30:57.286Z,8.92
2023-04-14T08:35:59.770Z,8.85
2023-04-14T08:41:06.153Z,8.83
2023-04-14T08:46:11.219Z,8.76
2023-04-14T08:51:12.730Z,8.74
2023-04-14T08:56:18.068Z,8.65
2023-04-14T09:01:20.854Z,8.60
2023-04-14T09:06:22.829Z,8.51
2023-04-14T09:11:24.758Z,8.42
2023-04-14T09:16:27.336Z,8.44
2023-04-14T09:21:52.832Z,8.41
2023-04-14T09:26:51.968Z,8.33
2023-04-14T09:31:53.533Z,8.29
2023-04-14T09:37:09.592Z,8.27
2023-04-14T09:42:11.473Z,8.23
2023-04-14T09:47:16.125Z,8.14
2023-04-14T09:52:17.548Z,8.07
2023-04-14T09:57:26.371Z,8.03
2023-04-14T10:02:27.987Z,8.04
2023-04-14T10:07:29.535Z,8.03
2023-04-14T10:12:31.233Z,8.01
2023-04-14T10:17:34.223Z,8.01
2023-04-14T10:27:54.271Z,8.02
2023-04-14T10:32:56.066Z,8.02
2023-04-14T10:37:57.548Z,8.03
2023-04-14T10:42:59.092Z,7.98
2023-04-14T10:48:00.740Z,7.95
2023-04-14T10:53:07.875Z,7.95
2023-04-14T10:58:09.393Z,7.93
2023-04-14T11:03:12.979Z,8.00
2023-04-14T11:08:28.096Z,8.17
2023-04-14T11:13:31.323Z,8.20
2023-04-14T11:18:34.308Z,8.28
2023-04-14T11:23:36.659Z,8.24
2023-04-14T11:28:42.762Z,8.27
2023-04-14T11:33:45.518Z,8.22
2023-04-14T11:38:47.944Z,8.22
2023-04-14T11:43:50.458Z,8.15
2023-04-14T11:48:56.480Z,8.17
2023-04-14T11:54:00.107Z,8.16
2023-04-14T11:59:02.792Z,8.17
2023-04-14T12:04:06.446Z,8.22
2023-04-14T12:09:09.312Z,8.30
2023-04-14T12:14:11.194Z,8.32
2023-04-14T12:19:12.714Z,8.32
2023-04-14T12:24:14.255Z,8.30
2023-04-14T12:29:16.355Z,8.19
2023-04-14T12:34:25.352Z,8.15
2023-04-14T12:39:28.404Z,8.14
2023-04-14T12:44:30.329Z,8.18
2023-04-14T12:49:37.027Z,8.22
2023-04-14T12:54:46.895Z,8.26
2023-04-14T12:59:48.900Z,8.22
2023-04-14T13:04:50.834Z,8.20
2023-04-14T13:09:52.490Z,8.21
2023-04-14T13:14:53.981Z,8.22
2023-04-14T13:19:55.691Z,8.20
2023-04-14T13:24:59.813Z,8.23
2023-04-14T13:30:01.621Z,8.31
2023-04-14T13:35:04.000Z,8.37
2023-04-14T13:40:06.669Z,8.42
2023-04-14T13:45:08.855Z,8.43
2023-04-14T13:50:11.003Z,8.37
2023-04-14T13:55:12.645Z,8.31
2023-04-14T14:00:14.357Z,8.30
2023-04-14T14:05:15.968Z,8.38
2023-04-14T14:10:17.542Z,8.37
2023-04-14T14:15:19.069Z,8.33
2023-04-14T14:20:20.954Z,8.35
2023-04-14T14:25:22.444Z,8.41
2023-04-14T14:30:24.100Z,8.52
2023-04-14T14:35:25.558Z,8.56
2023-04-14T14:40:28.711Z,8.57
2023-04-14T14:45:30.951Z,8.56
2023-04-14T14:50:32.819Z,8.58
2023-04-14T14:55:35.060Z,8.54
2023-04-14T15:00:36.981Z,8.51
2023-04-14T15:05:38.678Z,8.50
2023-04-14T15:10:40.537Z,8.51
2023-04-14T15:15:42.501Z,8.49
2023-04-14T15:20:43.996Z,8.50
2023-04-14T15:25:45.471Z,8.50
2023-04-14T15:30:46.924Z,8.49
2023-04-14T15:35:48.415Z,8.55
2023-04-14T15:40:49.882Z,8.58
2023-04-14T15:45:51.438Z,8.62
2023-04-14T15:50:52.895Z,8.59
2023-04-14T15:55:54.422Z,8.55
2023-04-14T16:00:56.702Z,8.56
2023-04-14T16:06:02.754Z,8.54
2023-04-14T16:11:04.834Z,8.53
2023-04-14T16:16:06.601Z,8.45
2023-04-14T16:21:08.438Z,8.42
2023-04-14T16:26:10.519Z,8.38
2023-04-14T16:31:12.136Z,8.32
2023-04-14T16:36:13.610Z,8.27
2023-04-14T16:41:15.057Z,8.23
2023-04-14T16:46:16.661Z,8.22
2023-04-14T16:51:18.205Z,8.24
2023-04-14T16:56:20.656Z,8.26
2023-04-14T17:01:22.780Z,8.23
2023-04-14T17:06:24.354Z,8.25
2023-04-14T17:11:25.887Z,8.20
2023-04-14T17:16:27.348Z,8.16
2023-04-14T17:21:28.756Z,8.11
2023-04-14T17:26:30.242Z,8.07
2023-04-14T17:31:32.266Z,8.06
2023-04-14T17:36:33.886Z,8.07
2023-04-14T17:41:35.461Z,8.06
2023-04-14T17:46:37.293Z,8.04
2023-04-14T17:51:38.947Z,8.05
2023-04-14T17:56:40.369Z,8.04
2023-04-14T18:01:42.135Z,8.02
2023-04-14T18:06:43.701Z,8.00
2023-04-14T18:11:45.170Z,8.01
2023-04-14T18:16:46.777Z,8.00
2023-04-14T18:21:48.219Z,7.98
2023-04-14T18:26:51.171Z,7.97
2023-04-14T18:31:52.868Z,7.97
2023-04-14T18:36:54.393Z,7.95
2023-04-14T18:41:55.841Z,7.93
2023-04-14T18:46:57.259Z,7.92
2023-04-14T18:51:58.678Z,7.91
2023-04-14T18:57:00.846Z,7.84
2023-04-14T19:02:02.483Z,7.80
2023-04-14T19:07:03.977Z,7.76
2023-04-14T19:12:05.466Z,7.76
2023-04-14T19:17:07.416Z,7.84
2023-04-14T19:22:08.836Z,7.83
2023-04-14T19:27:10.354Z,7.84
2023-04-14T19:32:11.875Z,7.84
2023-04-14T19:37:13.430Z,7.78
2023-04-14T19:42:14.834Z,7.76
2023-04-14T19:47:16.411Z,7.73
2023-04-14T19:52:18.773Z,7.73
2023-04-14T19:57:21.725Z,7.70
2023-04-14T20:02:23.267Z,7.65
2023-04-14T20:07:29.719Z,7.65
2023-04-14T20:12:31.192Z,7.69
2023-04-14T20:17:33.315Z,7.69
2023-04-14T20:22:34.994Z,7.66
2023-04-14T20:27:36.477Z,7.61
2023-04-14T20:32:38.193Z,7.61
2023-04-14T20:37:39.633Z,7.61
2023-04-14T20:42:41.081Z,7.60
2023-04-14T20:47:42.668Z,7.56
2023-04-14T20:52:44.825Z,7.53
2023-04-14T20:57:47.776Z,7.45
2023-04-14T21:02:49.255Z,7.36
2023-04-14T21:07:51.058Z,7.30
2023-04-14T21:15:24.862Z,7.29
2023-04-14T21:18:14.701Z,7.27
2023-04-14T21:23:16.647Z,7.27
2023-04-14T21:28:18.094Z,7.28
2023-04-14T21:33:19.549Z,7.32
2023-04-14T21:38:21.801Z,7.36
2023-04-14T21:43:23.216Z,7.37
2023-04-14T21:48:25.244Z,7.33
2023-04-14T21:53:27.166Z,7.34
2023-04-14T21:58:29.098Z,7.37
